• Join FlightAware (Why Join?)
  • Login
  • US Flag 
01:37AM EST


 

Airport Tracker/Info


-or-


 

Live Flight TrackerFlight Track Log ✈ UAL3741 ✈ 29-Jun-2013 ✈ KDFW - KORD

Flight Track Log - Related Links

Times and Time Zones

All times are in EDT time to prevent confusion due to time zone crossing. See the UAL3741 flight status page for this flight to view local times or setup timezone preferences in your user account.

Time Position Orientation Groundspeed Altitude Reporting Facility
EDT Latitude Longitude Course Direction KTS MPH feet Rate Location/Type
07:10PM 32.9000 -97.0333 348° North 148 170 1,200  Level Dallas / Fort Worth TRACON
07:11PM 32.9667 -97.0333 360° North 225 259 3,600 2,280 Climbing Dallas / Fort Worth TRACON
07:14PM 33.1302 -96.8000 North  Level FlightAware Approximate
07:14PM 33.1208 -97.0017 10° North 251 289 9,400  Level Fort Worth Center
07:15PM 33.2883 -96.8137 348° North  Level FlightAware Approximate
07:15PM 33.1853 -96.9692 23° Northeast 272 313 11,400  Level Fort Worth Center
07:16PM 33.2708 -96.9214 25° Northeast 291 335 14,100 2,280 Climbing Fort Worth Center
07:17PM 33.3458 -96.8814 24° Northeast 307 353 16,000 1,620 Climbing Fort Worth Center
07:18PM 33.4394 -96.8308 24° Northeast 324 373 17,400 1,200 Climbing Fort Worth Center
07:19PM 33.5247 -96.7781 27° Northeast 355 409 18,400 1,020 Climbing Fort Worth Center
07:20PM 33.6308 -96.7100 28° Northeast 383 441 19,500 1,080 Climbing Fort Worth Center
07:21PM 33.7244 -96.6492 28° Northeast 402 463 20,600 1,320 Climbing Fort Worth Center
07:22PM 33.8367 -96.5758 28° Northeast 413 475 22,200 1,380 Climbing Fort Worth Center
07:23PM 33.9261 -96.5172 29° Northeast 413 475 23,400 1,320 Climbing Fort Worth Center
07:24PM 34.0194 -96.4564 28° Northeast 418 481 24,900 1,380 Climbing Fort Worth Center
07:25PM 34.1233 -96.3797 31° Northeast 406 467 26,200 1,200 Climbing Fort Worth Center
07:26PM 34.2228 -96.2983 34° Northeast 413 475 27,400 1,200 Climbing Fort Worth Center
07:27PM 34.3242 -96.2164 34° Northeast 423 487 28,600 1,200 Climbing Fort Worth Center
07:28PM 34.4236 -96.1319 35° Northeast 423 487 29,800 1,200 Climbing Fort Worth Center
07:29PM 34.5228 -96.0500 34° Northeast 423 487 31,000 1,080 Climbing Fort Worth Center
07:30PM 34.6242 -95.9675 34° Northeast 423 487 32,000 960 Climbing Fort Worth Center
07:31PM 34.7253 -95.8800 35° Northeast 434 499 33,000 960 Climbing Fort Worth Center
07:32PM 34.8306 -95.7972 33° Northeast 434 499 34,000 960 Climbing Fort Worth Center
07:33PM 34.9317 -95.7117 35° Northeast 439 505 35,000 1,020 Climbing Fort Worth Center
07:34PM 35.0283 -95.6183 38° Northeast 439 505 36,100 960 Climbing Fort Worth Center
07:35PM 35.1250 -95.5275 38° Northeast 439 505 37,000 300 Climbing Fort Worth Center
07:36PM 35.2817 -95.3778 38° Northeast 450 518 37,000  Level Memphis Center
07:37PM 35.3425 -95.3139 41° Northeast 448 516 37,000  Level Kansas City Center
07:38PM 35.4406 -95.2214 38° Northeast 446 513 37,000  Level Kansas City Center
07:39PM 35.5575 -95.1094 38° Northeast 445 512 37,000  Level Kansas City Center
07:40PM 35.6556 -95.0158 38° Northeast 446 513 37,000  Level Kansas City Center
07:41PM 35.7528 -94.9211 38° Northeast 448 516 37,000  Level Kansas City Center
07:42PM 35.8497 -94.8278 38° Northeast 444 511 37,000  Level Kansas City Center
07:43PM 35.9475 -94.7336 38° Northeast 445 512 37,000  Level Kansas City Center
07:44PM 36.0586 -94.6242 39° Northeast 440 506 37,000  Level Memphis Center
07:45PM 36.1394 -94.5467 38° Northeast 441 507 37,000  Level Kansas City Center
07:46PM 36.2556 -94.4331 38° Northeast 442 509 37,000  Level Kansas City Center
07:47PM 36.3508 -94.3394 38° Northeast 441 507 37,000  Level Kansas City Center
07:48PM 36.4467 -94.2456 38° Northeast 440 506 37,000  Level Kansas City Center
07:49PM 36.5428 -94.1514 38° Northeast 439 505 37,000  Level Kansas City Center
07:50PM 36.6367 -94.0575 39° Northeast 435 501 37,000  Level Kansas City Center
07:51PM 36.7322 -93.9642 38° Northeast 436 502 37,000  Level Kansas City Center
07:52PM 36.8258 -93.8692 39° Northeast 434 499 37,000  Level Kansas City Center
07:53PM 36.9344 -93.7589 39° Northeast 433 498 37,000  Level Kansas City Center
07:54PM 37.0306 -93.6628 39° Northeast 439 505 37,000  Level Kansas City Center
07:55PM 37.1272 -93.5661 39° Northeast 441 507 37,000  Level Kansas City Center
07:56PM 37.2242 -93.4683 39° Northeast 445 512 37,000  Level Kansas City Center
07:57PM 37.3219 -93.3703 39° Northeast 446 513 37,000  Level Kansas City Center
07:58PM 37.4206 -93.2742 38° Northeast 446 513 37,000  Level Kansas City Center
07:59PM 37.5208 -93.1817 36° Northeast 445 512 37,000  Level Kansas City Center
08:00PM 37.6228 -93.0889 36° Northeast 447 514 37,000  Level Kansas City Center
08:02PM 37.7236 -92.9956 36° Northeast 448 516 37,000  Level Kansas City Center
08:03PM 37.8442 -92.8831 36° Northeast 446 513 37,000  Level Kansas City Center
08:04PM 37.9447 -92.7894 36° Northeast 446 513 37,000  Level Kansas City Center
08:05PM 38.0428 -92.6956 37° Northeast 448 516 37,000  Level Kansas City Center
08:06PM 38.1414 -92.6031 36° Northeast 445 512 37,000  Level Kansas City Center
08:07PM 38.2464 -92.5036 37° Northeast 443 510 37,000  Level Kansas City Center
08:08PM 38.3450 -92.4083 37° Northeast 440 506 37,000  Level Kansas City Center
08:09PM 38.4461 -92.3139 36° Northeast 444 511 37,000  Level Kansas City Center
08:10PM 38.5456 -92.2178 37° Northeast 445 512 37,000  Level Kansas City Center
08:11PM 38.6461 -92.1214 37° Northeast 447 514 37,000  Level Kansas City Center
08:12PM 38.7464 -92.0242 37° Northeast 449 517 37,000  Level Kansas City Center
08:13PM 38.8469 -91.9278 37° Northeast 450 518 37,000  Level Kansas City Center
08:14PM 38.9483 -91.8292 37° Northeast 453 521 37,000  Level Kansas City Center
08:15PM 39.0492 -91.7308 37° Northeast 454 522 37,000  Level Kansas City Center
08:16PM 39.1592 -91.6236 37° Northeast 453 521 37,000 -360 Level Kansas City Center
08:17PM 39.2592 -91.5261 37° Northeast 452 520 36,300 -1,020 Descending Kansas City Center
08:18PM 39.3611 -91.4272 37° Northeast 456 525 35,000 -660 Descending Kansas City Center
08:19PM 39.4608 -91.3275 38° Northeast 454 522 35,000  Level Kansas City Center
08:20PM 39.5625 -91.2283 37° Northeast 455 524 35,000  Level Kansas City Center
08:21PM 39.6856 -91.1044 38° Northeast 461 531 35,000  Level Kansas City Center
08:22PM 39.7894 -91.0006 38° Northeast 467 537 35,000  Level Kansas City Center
08:23PM 39.8922 -90.8956 38° Northeast 468 539 35,000 -480 Level Kansas City Center
08:24PM 39.9950 -90.7917 38° Northeast 467 537 34,100 -960 Descending Kansas City Center
08:25PM 40.0961 -90.6903 37° Northeast 462 532 33,100 -540 Descending Kansas City Center
08:26PM 40.1981 -90.5864 38° Northeast 462 532 33,000 -60 Descending Kansas City Center
08:27PM 40.2989 -90.4822 38° Northeast 462 532 33,000  Level Kansas City Center
08:28PM 40.3992 -90.3739 39° Northeast 465 535 33,000  Level Kansas City Center
08:29PM 40.4867 -90.2444 48° Northeast 471 542 33,000  Level Kansas City Center
08:30PM 40.5839 -90.1028 48° Northeast 471 542 33,000 -720 Level Kansas City Center
08:31PM 40.6975 -89.9383 48° Northeast 477 549 31,500 -1,680 Descending Chicago Center
08:32PM 40.7800 -89.8033 51° Northeast 474 545 29,400 -2,040 Descending Chicago Center
08:33PM 40.8683 -89.6808 46° Northeast 458 527 27,300 -2,100 Descending Chicago Center
08:34PM 40.9514 -89.5594 48° Northeast 446 513 25,200 -1,620 Descending Chicago Center
08:36PM 41.0247 -89.4503 48° Northeast 432 497 24,000 -1,800 Descending Chicago Center
08:37PM 41.1161 -89.3133 48° Northeast 416 479 21,600 -2,340 Descending Chicago Center
08:38PM 41.1886 -89.2053 48° Northeast 397 457 19,300 -2,340 Descending Chicago Center
08:39PM 41.2600 -89.0947 49° Northeast 379 436 16,800 -2,220 Descending Chicago Center
08:40PM 41.3214 -88.9986 50° Northeast 347 399 14,800 -1,980 Descending Chicago Center
08:41PM 41.3817 -88.9086 48° Northeast 329 379 12,800 -1,380 Descending Chicago Center
08:42PM 41.4372 -88.8225 49° Northeast 310 357 12,000 -540 Descending Chicago Center
08:43PM 41.4886 -88.7433 49° Northeast 288 331 11,700 -540 Descending Chicago Center
08:44PM 41.5317 -88.6569 56° Northeast 283 326 11,000 -360 Descending Chicago Center
08:45PM 41.5681 -88.5644 62° Northeast 283 326 11,000 -240 Level Chicago Center
08:46PM 41.5808 -88.4525 81° East 250 288 10,600 -960 Descending Chicago Center
08:47PM 41.6008 -88.3697 72° East 240 276 9,100 -1,260 Descending Chicago Center
08:48PM 41.6294 -88.2919 64° Northeast 236 272 8,000 -540 Descending Chicago Center
08:49PM 41.6697 -88.2406 44° Northeast 203 234 8,000 -300 Level Chicago Center
08:50PM 41.7094 -88.1911 43° Northeast 197 227 7,400 -1,020 Descending Chicago Center
08:51PM 41.7453 -88.1444 44° Northeast 183 211 6,000 -1,080 Descending Chicago Center
08:52PM 41.7797 -88.1047 41° Northeast 170 196 5,200 -960 Descending Chicago Center
08:53PM 41.8189 -88.0578 42° Northeast 163 188 4,100 -960 Descending Chicago Center
08:54PM 41.8517 -88.0200 41° Northeast 159 183 3,300 -840 Descending Chicago Center
08:55PM 41.8825 -87.9836 41° Northeast 154 177 2,500 -780 Descending Chicago Center
08:56PM 41.9000 -87.9500 55° Northeast 129 148 1,900 -720 Descending Chicago TRACON
08:57PM 41.9333 -87.9333 20° North 115 132 1,300 -720 Descending Chicago TRACON
08:59PM 41.9667 -87.9000 37° Northeast  Level FlightAware Approximate
09:06PM 41.9817 -87.9067 37° Northeast  Level Estimated